Flight Track Log - Related Links

Times and Time Zones

All times are in EDT time to prevent confusion due to time zone crossing. See the CHQ6169 flight status page for this flight to view local times or setup timezone preferences in your user account.

Time Position Orientation Groundspeed Altitude Reporting Facility
EDT Latitude Longitude Course Direction KTS MPH feet Rate Location/Type
Sat 04:14:52 PM 43.1092 -76.0864 152° Southeast 170 196 1,300  Level Boston Center
Sat 04:15:35 PM 43.1044 -76.0378 98° East 175 201 2,700 1,846 Climbing Boston Center
Sat 04:17:15 PM 43.0181 -76.0014 163° South 216 249 5,700 1,988 Climbing Boston Center
Sat 04:18:00 PM 42.7958 -75.7964 144° Southeast  Level Estimated
Sat 04:18:15 PM 42.9519 -75.9778 165° South 239 275 8,000  Level Boston Center
Sat 04:19:00 PM 42.7168 -75.7195 154° Southeast  Level Estimated
Sat 04:19:15 PM 42.8908 -75.9347 153° Southeast 252 290 10,000  Level Boston Center
Sat 04:20:00 PM 42.6377 -75.6427 152° Southeast  Level Estimated
Sat 04:20:15 PM 42.8219 -75.8628 143° Southeast 269 310 11,300  Level Boston Center
Sat 04:21:15 PM 42.7489 -75.8022 149° Southeast 290 334 12,700 1,318 Climbing Boston Center
Sat 04:22:27 PM 42.6692 -75.7442 152° Southeast 309 356 14,200 1,455 Climbing Boston Center
Sat 04:23:27 PM 42.5672 -75.6683 151° Southeast 330 380 15,900 1,600 Climbing Boston Center
Sat 04:24:27 PM 42.4872 -75.6161 154° Southeast 330 380 17,400 1,350 Climbing Boston Center
Sat 04:25:27 PM 42.4075 -75.5586 152° Southeast 330 380 18,600 1,300 Climbing Boston Center
Sat 04:26:27 PM 42.3258 -75.5011 152° Southeast 330 380 20,000 1,200 Climbing Boston Center
Sat 04:27:27 PM 42.2419 -75.4411 152° Southeast 336 387 21,000 500 Climbing Boston Center
Sat 04:28:27 PM 42.1497 -75.3778 153° Southeast 351 404 21,000  Level Boston Center
Sat 04:29:27 PM 42.0542 -75.2839 144° Southeast 368 423 21,000  Level Boston Center
Sat 04:30:27 PM 42.0142 -75.1311 109° East 384 442 21,000  Level Boston Center
Sat 04:31:27 PM 41.9758 -74.9842 109° East 394 453 21,000  Level Boston Center
Sat 04:32:27 PM 41.9394 -74.8403 109° East 402 463 21,000  Level Boston Center
Sat 04:33:27 PM 41.9006 -74.6939 110° East 407 468 21,000 -107 Level Boston Center
Sat 04:35:16 PM 41.8114 -74.4750 119° Southeast 424 488 20,700 -282 Descending New York Center
Sat 04:36:17 PM 41.7183 -74.3892 145° Southeast 403 464 20,200 -347 Descending New York Center
Sat 04:37:17 PM 41.6233 -74.2953 144° Southeast 408 470 20,000 -151 Descending New York Center
Sat 04:38:16 PM 41.5283 -74.1989 143° Southeast 408 470 19,900  Descending New York Center
Sat 04:39:17 PM 41.4369 -74.1167 146° Southeast 403 464 20,000  Climbing New York Center
Sat 04:40:15 PM 41.3267 -74.1167 180° South 374 430 19,900 -50 Descending New York Center
Sat 04:41:17 PM 41.2469 -74.2094 221° Southwest 350 403 19,900  Level New York Center
Sat 04:42:16 PM 41.1917 -74.3142 235° Southwest 327 376 19,900  Level New York Center
Sat 04:43:17 PM 41.1347 -74.4075 231° Southwest 335 386 19,900 50 Level New York Center
Sat 04:44:17 PM 41.0694 -74.4975 226° Southwest 340 391 20,000 -252 Climbing New York Center
Sat 04:45:16 PM 41.0008 -74.4250 141° Southeast 238 274 19,400 -504 Descending New York Center
Sat 04:46:16 PM 40.9669 -74.3078 111° Southeast 266 306 19,000 -202 Descending New York Center
Sat 04:47:15 PM 40.9347 -74.2017 112° Southeast 324 373 19,000 -151 Level New York Center
Sat 04:48:15 PM 40.8922 -74.0869 116° Southeast 346 398 18,700 -700 Descending New York Center
Sat 04:49:15 PM 40.8350 -73.9744 124° Southeast 341 392 17,600 -1,150 Descending New York Center
Sat 04:50:15 PM 40.7872 -73.8819 124° Southeast 336 387 16,400 -1,339 Descending New York Center
Sat 04:51:16 PM 40.7444 -73.7675 116° Southeast 330 380 14,900 -1,525 Descending New York Center
Sat 04:52:17 PM 40.6861 -73.6883 134° Southeast 320 368 13,300 -1,785 Descending New York Center
Sat 04:53:17 PM 40.6119 -73.6553 161° South 283 326 11,300 -1,822 Descending New York Center
Sat 04:54:32 PM 40.5167 -73.6167 163° South 264 304 9,200 -1,778 Descending New York TRACON
Sat 04:55:32 PM 40.4667 -73.6667 217° Southwest 255 293 7,300 -1,950 Descending New York TRACON
Sat 04:56:32 PM 40.4333 -73.7500 242° Southwest 258 297 5,300 -1,650 Descending New York TRACON
Sat 04:57:32 PM 40.4333 -73.8333 270° West 258 297 4,000 -850 Descending New York TRACON
Sat 04:58:32 PM 40.4333 -73.9167 270° West 220 253 3,600 -700 Descending New York TRACON
Sat 04:59:32 PM 40.4833 -73.9500 333° Northwest 206 237 2,600 -1,000 Descending New York TRACON
Sat 05:00:32 PM 40.5333 -73.9500 360° North 196 226 1,600 -550 Descending New York TRACON
Sat 05:01:32 PM 40.5833 -73.9167 27° Northeast 183 211 1,500 -53 Descending New York TRACON
Sat 05:02:26 PM 40.6167 -73.8833 37° Northeast 172 198 1,500 -400 Level New York TRACON
Sat 05:03:32 PM 40.6667 -73.8500 27° Northeast 149 171 700 -238 Descending New York TRACON
Sat 05:04:32 PM 40.6667 -73.8167 90° East 143 165 1,000 650 Climbing New York TRACON
Sat 05:05:32 PM 40.6500 -73.7500 108° East 216 249 2,000 500 Climbing New York TRACON
Sat 05:06:32 PM 40.6167 -73.6833 123° Southeast 205 236 2,000 50 Level New York TRACON
Sat 05:07:32 PM 40.6000 -73.6167 108° East 210 242 2,100 450 Climbing New York TRACON
Sat 05:08:32 PM 40.6167 -73.5500 72° East 237 273 2,900 800 Climbing New York TRACON

Login

Don't have an account? Register now (free) for customized features, flight alerts, and more!